createdAt,value
2023-04-27T00:00:38.985Z,7.50
2023-04-27T00:03:06.350Z,7.50
2023-04-27T00:05:41.538Z,7.50
2023-04-27T00:08:08.934Z,7.50
2023-04-27T00:10:35.860Z,7.50
2023-04-27T00:13:02.876Z,7.40
2023-04-27T00:15:29.977Z,7.40
2023-04-27T00:17:59.446Z,7.30
2023-04-27T00:20:26.694Z,7.30
2023-04-27T00:22:56.675Z,7.30
2023-04-27T00:25:23.675Z,7.20
2023-04-27T00:27:54.996Z,7.20
2023-04-27T00:30:25.056Z,7.30
2023-04-27T00:32:53.515Z,7.20
2023-04-27T00:35:20.791Z,7.20
2023-04-27T00:37:50.034Z,7.30
2023-04-27T00:40:17.022Z,7.20
2023-04-27T00:42:46.136Z,7.20
2023-04-27T00:45:13.639Z,7.30
2023-04-27T00:47:41.186Z,7.30
2023-04-27T00:50:13.173Z,7.30
2023-04-27T00:52:40.792Z,7.20
2023-04-27T00:55:09.800Z,7.30
2023-04-27T00:57:37.312Z,7.20
2023-04-27T01:00:07.461Z,7.20
2023-04-27T01:02:40.273Z,7.20
2023-04-27T01:05:08.513Z,7.20
2023-04-27T01:07:39.514Z,7.20
2023-04-27T01:10:12.035Z,7.30
2023-04-27T01:12:41.183Z,7.20
2023-04-27T01:15:08.929Z,7.20
2023-04-27T01:17:35.963Z,7.20
2023-04-27T01:20:10.726Z,7.20
2023-04-27T01:22:40.796Z,7.20
2023-04-27T01:25:09.752Z,7.20
2023-04-27T01:27:38.926Z,7.20
2023-04-27T01:30:06.755Z,7.20
2023-04-27T01:32:33.773Z,7.20
2023-04-27T01:35:00.676Z,7.10
2023-04-27T01:37:27.602Z,7.10
2023-04-27T01:39:54.619Z,7.10
2023-04-27T01:42:21.486Z,7.10
2023-04-27T01:44:49.133Z,7.10
2023-04-27T01:47:17.332Z,7.10
2023-04-27T01:49:44.418Z,7.10
2023-04-27T01:52:13.512Z,7.10
2023-04-27T01:54:40.457Z,7.10
2023-04-27T01:57:07.373Z,7.00
2023-04-27T01:59:34.394Z,7.10
2023-04-27T02:02:04.147Z,7.00
2023-04-27T02:04:33.957Z,7.00
2023-04-27T02:07:03.453Z,7.00
2023-04-27T02:09:32.538Z,6.90
2023-04-27T02:11:59.459Z,6.90
2023-04-27T02:14:28.482Z,6.90
2023-04-27T02:16:55.698Z,6.90
2023-04-27T02:19:23.356Z,6.90
2023-04-27T02:21:50.840Z,6.80
2023-04-27T02:24:19.930Z,6.80
2023-04-27T02:26:49.212Z,6.80
2023-04-27T02:29:16.980Z,6.80
2023-04-27T02:31:48.691Z,6.80
2023-04-27T02:34:15.676Z,6.80
2023-04-27T02:36:44.879Z,6.80
2023-04-27T02:39:12.057Z,6.80
2023-04-27T02:41:43.655Z,6.80
2023-04-27T02:44:10.584Z,6.80
2023-04-27T02:46:37.527Z,6.90
2023-04-27T02:49:04.479Z,6.90
2023-04-27T02:51:31.366Z,6.90
2023-04-27T02:53:58.398Z,6.90
2023-04-27T02:56:25.477Z,7.00
2023-04-27T02:58:52.759Z,6.90
2023-04-27T03:01:22.003Z,6.90
2023-04-27T03:03:51.409Z,6.90
2023-04-27T03:06:20.829Z,6.90
2023-04-27T03:08:50.416Z,6.90
2023-04-27T03:11:17.283Z,6.90
2023-04-27T03:13:44.471Z,6.90
2023-04-27T03:16:11.843Z,6.90
2023-04-27T03:18:41.822Z,6.90
2023-04-27T03:21:09.384Z,6.90
2023-04-27T03:23:37.033Z,6.90
2023-04-27T03:26:08.581Z,6.90
2023-04-27T03:28:36.168Z,7.00
2023-04-27T03:31:10.905Z,7.00
2023-04-27T03:33:38.576Z,7.00
2023-04-27T03:36:06.792Z,7.10
2023-04-27T03:38:39.283Z,7.00
2023-04-27T03:41:06.699Z,7.00
2023-04-27T03:43:33.584Z,7.00
2023-04-27T03:46:00.481Z,7.10
2023-04-27T03:48:28.029Z,7.00
2023-04-27T03:50:55.972Z,7.00
2023-04-27T03:53:25.189Z,7.00
2023-04-27T03:55:52.309Z,7.00
2023-04-27T03:58:19.284Z,7.10
2023-04-27T04:01:10.199Z,7.00
2023-04-27T04:03:37.683Z,7.00
2023-04-27T04:06:07.696Z,7.10
2023-04-27T04:08:34.697Z,7.20
2023-04-27T04:11:01.702Z,7.30
2023-04-27T04:13:29.376Z,7.30
2023-04-27T04:16:07.116Z,7.30
2023-04-27T04:18:35.223Z,7.40
2023-04-27T04:21:03.078Z,7.40
2023-04-27T04:23:33.997Z,7.40
2023-04-27T04:26:03.137Z,7.40
2023-04-27T04:28:33.897Z,7.40
2023-04-27T04:31:06.038Z,7.40
2023-04-27T04:33:37.256Z,7.40
2023-04-27T04:36:05.099Z,7.40
2023-04-27T04:38:34.641Z,7.40
2023-04-27T04:41:04.075Z,7.50
2023-04-27T04:43:33.836Z,7.50
2023-04-27T04:46:04.199Z,7.60
2023-04-27T04:48:31.206Z,7.60
2023-04-27T04:50:58.180Z,7.70
2023-04-27T04:53:27.602Z,7.70
2023-04-27T04:55:56.035Z,7.80
2023-04-27T04:58:23.171Z,7.80
2023-04-27T05:00:50.226Z,7.90
2023-04-27T05:03:17.494Z,7.90
2023-04-27T05:05:44.891Z,8.00
2023-04-27T05:08:11.744Z,8.00
2023-04-27T05:10:38.639Z,8.10
2023-04-27T05:13:07.775Z,8.10
2023-04-27T05:15:34.697Z,8.10
2023-04-27T05:18:03.786Z,8.20
2023-04-27T05:20:35.799Z,8.20
2023-04-27T05:23:04.870Z,8.30
2023-04-27T05:25:32.696Z,8.30
2023-04-27T05:27:59.629Z,8.30
2023-04-27T05:30:27.293Z,8.20
2023-04-27T05:32:54.340Z,8.20
2023-04-27T05:35:23.574Z,8.10
2023-04-27T05:37:50.410Z,8.00
2023-04-27T05:40:17.514Z,8.00
2023-04-27T05:42:46.669Z,8.20
2023-04-27T05:45:14.065Z,8.40
2023-04-27T05:47:45.725Z,8.40
2023-04-27T05:50:12.871Z,8.50
2023-04-27T05:52:45.288Z,8.70
2023-04-27T05:55:12.193Z,8.80
2023-04-27T05:57:40.308Z,8.80
2023-04-27T06:00:11.333Z,8.80
2023-04-27T06:02:42.644Z,9.00
2023-04-27T06:05:10.188Z,9.10
2023-04-27T06:07:39.586Z,9.00
2023-04-27T06:10:07.714Z,9.30
2023-04-27T06:12:34.630Z,9.60
2023-04-27T06:15:03.815Z,9.70
2023-04-27T06:17:33.195Z,9.80
2023-04-27T06:20:00.290Z,10.10
2023-04-27T06:22:27.341Z,10.10
2023-04-27T06:24:54.248Z,10.30
2023-04-27T06:27:21.159Z,10.40
2023-04-27T06:29:48.183Z,10.10
2023-04-27T06:32:15.387Z,10.30
2023-04-27T06:34:44.512Z,10.70
2023-04-27T06:37:11.431Z,11.00
2023-04-27T06:39:38.852Z,11.20
2023-04-27T06:42:07.966Z,11.40
2023-04-27T06:44:34.785Z,11.80
2023-04-27T06:47:02.404Z,12.00
2023-04-27T06:49:31.656Z,12.30
2023-04-27T06:52:06.303Z,12.60
2023-04-27T06:54:33.228Z,12.20
2023-04-27T06:57:00.115Z,11.90
2023-04-27T06:59:27.392Z,11.70
2023-04-27T07:01:54.485Z,11.80
2023-04-27T07:04:21.525Z,12.20
2023-04-27T07:06:48.712Z,12.40
2023-04-27T07:09:26.461Z,12.50
2023-04-27T07:11:55.132Z,12.40
2023-04-27T07:14:22.701Z,12.30
2023-04-27T07:16:49.688Z,12.60
2023-04-27T07:19:16.978Z,12.50
2023-04-27T07:21:43.827Z,12.30
2023-04-27T07:24:10.999Z,12.00
2023-04-27T07:26:37.925Z,11.80
2023-04-27T07:29:14.411Z,11.70
2023-04-27T07:31:52.226Z,11.50
2023-04-27T07:34:24.026Z,11.60
2023-04-27T07:36:54.136Z,11.70
2023-04-27T07:39:21.305Z,11.80
2023-04-27T07:41:50.829Z,11.60
2023-04-27T07:44:21.730Z,11.50
2023-04-27T07:46:49.611Z,11.40
2023-04-27T07:49:16.821Z,11.60
2023-04-27T07:51:46.226Z,11.90
2023-04-27T07:54:15.535Z,12.30
2023-04-27T07:56:45.681Z,12.50
2023-04-27T07:59:12.942Z,12.80
2023-04-27T08:01:40.071Z,13.10
2023-04-27T08:04:09.651Z,13.40
2023-04-27T08:06:39.573Z,13.60
2023-04-27T08:09:06.835Z,13.80
2023-04-27T08:11:33.782Z,14.00
2023-04-27T08:14:00.681Z,14.10
2023-04-27T08:16:28.257Z,14.30
2023-04-27T08:18:55.512Z,14.40
2023-04-27T08:21:24.683Z,14.30
2023-04-27T08:23:51.683Z,14.20
2023-04-27T08:26:18.642Z,14.30
2023-04-27T08:28:49.282Z,14.50
2023-04-27T08:31:16.450Z,14.60
2023-04-27T08:33:45.845Z,14.50
2023-04-27T08:36:15.431Z,14.50
2023-04-27T08:38:42.362Z,14.60
2023-04-27T08:41:20.817Z,14.60
2023-04-27T08:43:53.359Z,14.70
2023-04-27T08:46:21.478Z,14.80
2023-04-27T08:48:52.278Z,14.80
2023-04-27T08:51:20.364Z,14.90
2023-04-27T08:53:59.297Z,14.80
2023-04-27T08:56:31.401Z,15.00
2023-04-27T08:58:59.077Z,15.30
2023-04-27T09:01:29.156Z,15.50
2023-04-27T09:04:00.699Z,15.70
2023-04-27T09:06:35.688Z,15.90
2023-04-27T09:09:04.026Z,16.10
2023-04-27T09:11:32.623Z,16.20
2023-04-27T09:14:01.225Z,16.40
2023-04-27T09:16:29.627Z,16.40
2023-04-27T09:18:58.432Z,16.40
2023-04-27T09:21:30.036Z,16.60
2023-04-27T09:23:58.615Z,16.80
2023-04-27T09:26:31.707Z,17.00
2023-04-27T09:28:58.697Z,17.00
2023-04-27T09:31:35.379Z,17.10
2023-04-27T09:34:02.909Z,17.20
2023-04-27T09:36:30.816Z,17.10
2023-04-27T09:38:59.031Z,17.00
2023-04-27T09:41:28.654Z,16.90
2023-04-27T09:43:57.817Z,17.00
2023-04-27T09:46:26.537Z,17.10
2023-04-27T09:48:55.384Z,17.30
2023-04-27T09:51:22.324Z,17.60
2023-04-27T09:53:56.515Z,17.70
2023-04-27T09:56:31.001Z,18.10
2023-04-27T09:59:01.115Z,18.20
2023-04-27T10:01:41.768Z,18.10
2023-04-27T10:04:14.370Z,17.90
2023-04-27T10:07:03.726Z,18.40
2023-04-27T10:09:40.082Z,18.80
2023-04-27T10:12:18.912Z,18.90
2023-04-27T10:14:55.583Z,19.20
2023-04-27T10:17:34.094Z,19.20
2023-04-27T10:20:09.861Z,19.10
2023-04-27T10:22:40.943Z,19.20
2023-04-27T10:25:26.750Z,18.90
2023-04-27T10:27:59.074Z,18.60
2023-04-27T10:30:31.302Z,17.90
2023-04-27T10:33:00.483Z,17.50
2023-04-27T10:35:47.608Z,17.50
2023-04-27T10:38:23.812Z,17.50
2023-04-27T10:41:02.485Z,17.40
2023-04-27T10:43:32.590Z,17.30
2023-04-27T10:46:13.088Z,17.50
2023-04-27T10:48:44.698Z,17.20
2023-04-27T10:51:16.651Z,17.00
2023-04-27T10:53:52.119Z,17.10
2023-04-27T10:56:19.707Z,17.30
2023-04-27T10:58:49.348Z,17.10
2023-04-27T11:01:27.741Z,17.20
2023-04-27T11:03:58.913Z,17.30
2023-04-27T11:06:30.381Z,17.40
2023-04-27T11:09:00.578Z,17.50
2023-04-27T11:11:27.644Z,17.80
2023-04-27T11:13:57.154Z,18.20
2023-04-27T11:16:24.462Z,18.10
2023-04-27T11:18:54.444Z,17.90
2023-04-27T11:21:23.479Z,18.30
2023-04-27T11:23:50.832Z,18.50
2023-04-27T11:26:21.909Z,18.90
2023-04-27T11:29:10.034Z,18.90
2023-04-27T11:31:47.663Z,19.20
2023-04-27T11:34:22.573Z,19.50
2023-04-27T11:37:18.037Z,19.30
2023-04-27T11:39:46.373Z,19.40
2023-04-27T11:42:22.272Z,19.60
2023-04-27T11:44:54.377Z,19.80
2023-04-27T11:47:23.000Z,19.80
2023-04-27T11:49:58.759Z,19.90
2023-04-27T11:52:32.313Z,19.90
2023-04-27T11:55:00.603Z,19.60
2023-04-27T11:57:32.840Z,19.50
2023-04-27T12:00:14.681Z,19.50
2023-04-27T12:02:43.797Z,19.70
2023-04-27T12:05:13.247Z,19.40
2023-04-27T12:07:43.619Z,19.10
2023-04-27T12:10:10.962Z,19.20
2023-04-27T12:12:38.635Z,19.30
2023-04-27T12:15:08.488Z,19.90
2023-04-27T12:17:35.933Z,20.40
2023-04-27T12:20:03.068Z,20.10
2023-04-27T12:22:30.199Z,20.40
2023-04-27T12:24:59.376Z,20.90
2023-04-27T12:27:26.597Z,20.70
2023-04-27T12:29:59.378Z,21.40
2023-04-27T12:32:27.627Z,21.30
2023-04-27T12:34:56.758Z,21.00
2023-04-27T12:37:26.225Z,21.20
2023-04-27T12:39:56.461Z,21.10
2023-04-27T12:42:26.252Z,21.20
2023-04-27T12:44:53.963Z,21.60
2023-04-27T12:47:45.759Z,21.20
2023-04-27T12:50:09.941Z,21.60
2023-04-27T12:52:36.892Z,21.80
2023-04-27T12:55:05.090Z,21.30
2023-04-27T12:57:32.038Z,21.70
2023-04-27T13:00:02.191Z,21.80
2023-04-27T13:02:29.665Z,22.00
2023-04-27T13:04:56.973Z,22.20
2023-04-27T13:07:26.473Z,22.40
2023-04-27T13:09:53.546Z,22.00
2023-04-27T13:12:22.692Z,21.70
2023-04-27T13:14:49.823Z,21.50
2023-04-27T13:17:17.586Z,21.40
2023-04-27T13:19:44.563Z,21.30
2023-04-27T13:22:11.747Z,21.60
2023-04-27T13:24:38.723Z,21.60
2023-04-27T13:27:07.960Z,21.30
2023-04-27T13:29:34.859Z,21.10
2023-04-27T13:32:01.945Z,21.20
2023-04-27T13:34:31.640Z,21.10
2023-04-27T13:37:00.819Z,21.00
2023-04-27T13:39:33.141Z,20.90
2023-04-27T13:42:02.270Z,20.80
2023-04-27T13:44:31.813Z,21.10
2023-04-27T13:46:58.953Z,21.00
2023-04-27T13:49:26.026Z,20.70
2023-04-27T13:51:55.377Z,21.00
2023-04-27T13:54:22.373Z,21.00
2023-04-27T13:56:49.263Z,21.00
2023-04-27T13:59:16.750Z,21.20
2023-04-27T14:01:46.032Z,21.60
2023-04-27T14:04:15.419Z,21.70
2023-04-27T14:06:42.425Z,21.70
2023-04-27T14:09:11.880Z,21.10
2023-04-27T14:11:52.326Z,20.80
2023-04-27T14:14:25.429Z,20.60
2023-04-27T14:16:56.829Z,20.50
2023-04-27T14:19:24.067Z,20.30
2023-04-27T14:21:53.678Z,20.40
2023-04-27T14:24:20.662Z,21.00
2023-04-27T14:26:49.407Z,21.10
2023-04-27T14:29:19.452Z,21.20
2023-04-27T14:31:47.277Z,20.80
2023-04-27T14:34:17.286Z,20.60
2023-04-27T14:36:45.409Z,20.80
2023-04-27T14:39:13.588Z,20.70
2023-04-27T14:41:40.920Z,20.80
2023-04-27T14:44:10.668Z,20.80
2023-04-27T14:46:39.741Z,20.60
2023-04-27T14:49:06.678Z,20.80
2023-04-27T14:51:33.724Z,20.70
2023-04-27T14:54:04.314Z,20.70
2023-04-27T14:56:33.980Z,20.70
2023-04-27T14:59:01.295Z,21.10
2023-04-27T15:01:28.349Z,21.30
2023-04-27T15:03:56.667Z,20.90
2023-04-27T15:06:30.354Z,20.70
2023-04-27T15:08:57.751Z,20.50
2023-04-27T15:11:24.721Z,20.50
2023-04-27T15:13:51.725Z,20.30
2023-04-27T15:16:21.265Z,20.50
2023-04-27T15:18:50.805Z,20.80
2023-04-27T15:21:22.312Z,21.00
2023-04-27T15:23:49.303Z,20.20
2023-04-27T15:26:19.230Z,19.70
2023-04-27T15:28:46.224Z,20.10
2023-04-27T15:31:15.720Z,20.20
2023-04-27T15:33:42.730Z,19.50
2023-04-27T15:36:11.821Z,19.10
2023-04-27T15:38:41.191Z,19.10
2023-04-27T15:41:09.887Z,19.50
2023-04-27T15:43:36.974Z,19.50
2023-04-27T15:46:06.915Z,19.50
2023-04-27T15:48:36.784Z,19.60
2023-04-27T15:51:08.927Z,19.80
2023-04-27T15:53:37.622Z,19.80
2023-04-27T15:56:04.926Z,19.70
2023-04-27T15:58:37.186Z,19.40
2023-04-27T16:01:04.436Z,19.30
2023-04-27T16:03:33.450Z,19.50
2023-04-27T16:06:00.669Z,19.60
2023-04-27T16:08:28.885Z,20.10
2023-04-27T16:10:56.244Z,20.30
2023-04-27T16:13:23.899Z,20.70
2023-04-27T16:15:51.191Z,20.90
2023-04-27T16:18:18.298Z,21.00
2023-04-27T16:20:48.082Z,21.10
2023-04-27T16:23:17.610Z,20.60
2023-04-27T16:25:47.038Z,20.10
2023-04-27T16:28:18.022Z,19.80
2023-04-27T16:30:47.078Z,19.50
2023-04-27T16:33:14.155Z,19.20
2023-04-27T16:35:41.107Z,18.90
2023-04-27T16:38:08.059Z,18.70
2023-04-27T16:40:35.005Z,18.40
2023-04-27T16:43:03.403Z,18.30
2023-04-27T16:45:30.423Z,18.00
2023-04-27T16:47:59.577Z,18.00
2023-04-27T16:50:31.555Z,18.00
2023-04-27T16:53:09.479Z,18.20
2023-04-27T16:55:41.148Z,18.60
2023-04-27T16:58:08.159Z,19.20
2023-04-27T17:01:29.809Z,19.60
2023-04-27T17:04:02.229Z,19.80
2023-04-27T17:06:31.546Z,19.60
2023-04-27T17:09:04.716Z,19.30
2023-04-27T17:11:33.973Z,19.00
2023-04-27T17:14:02.964Z,18.60
2023-04-27T17:16:29.997Z,18.30
2023-04-27T17:18:58.960Z,18.20
2023-04-27T17:21:28.531Z,18.00
2023-04-27T17:23:55.699Z,17.60
2023-04-27T17:26:23.424Z,17.30
2023-04-27T17:28:51.831Z,17.10
2023-04-27T17:31:21.421Z,16.90
2023-04-27T17:33:50.775Z,16.80
2023-04-27T17:36:17.818Z,16.70
2023-04-27T17:38:44.846Z,16.50
2023-04-27T17:41:11.980Z,16.30
2023-04-27T17:43:38.908Z,16.20
2023-04-27T17:46:09.743Z,16.00
2023-04-27T17:48:39.091Z,15.90
2023-04-27T17:51:06.113Z,15.80
2023-04-27T17:53:33.013Z,15.70
2023-04-27T17:56:00.243Z,15.60
2023-04-27T17:58:28.110Z,15.40
2023-04-27T18:00:55.074Z,15.30
2023-04-27T18:03:24.538Z,15.20
2023-04-27T18:05:53.674Z,15.00
2023-04-27T18:08:20.632Z,14.90
2023-04-27T18:10:47.599Z,14.70
2023-04-27T18:13:14.570Z,14.60
2023-04-27T18:15:46.119Z,14.50
2023-04-27T18:18:20.664Z,14.40
2023-04-27T18:20:48.296Z,14.20
2023-04-27T18:23:15.463Z,14.10
2023-04-27T18:25:42.339Z,14.00
2023-04-27T18:28:09.298Z,13.90
2023-04-27T18:30:39.043Z,13.80
2023-04-27T18:33:06.230Z,13.60
2023-04-27T18:35:33.302Z,13.50
2023-04-27T18:38:00.383Z,13.30
2023-04-27T18:40:27.289Z,13.30
2023-04-27T18:42:56.876Z,13.20
2023-04-27T18:45:23.932Z,13.00
2023-04-27T18:47:51.147Z,12.90
2023-04-27T18:50:19.162Z,12.80
2023-04-27T18:52:46.718Z,12.70
2023-04-27T18:55:16.968Z,12.60
2023-04-27T18:57:44.600Z,12.50
2023-04-27T19:00:14.992Z,12.40
2023-04-27T19:02:42.469Z,12.30
2023-04-27T19:05:13.871Z,12.10
2023-04-27T19:07:41.368Z,12.00
2023-04-27T19:10:08.956Z,11.90
2023-04-27T19:12:38.618Z,11.90
2023-04-27T19:15:06.519Z,11.80
2023-04-27T19:17:35.855Z,11.80
2023-04-27T19:20:03.587Z,11.70
2023-04-27T19:22:34.373Z,11.60
2023-04-27T19:25:04.437Z,11.70
2023-04-27T19:27:31.453Z,11.70
2023-04-27T19:29:58.893Z,11.70
2023-04-27T19:32:27.567Z,11.60
2023-04-27T19:34:58.551Z,11.60
2023-04-27T19:37:26.888Z,11.60
2023-04-27T19:39:54.817Z,11.60
2023-04-27T19:42:26.398Z,11.60
2023-04-27T19:44:58.856Z,11.60
2023-04-27T19:47:26.039Z,11.70
2023-04-27T19:49:58.467Z,11.70
2023-04-27T19:52:27.956Z,11.70
2023-04-27T19:54:55.851Z,11.70
2023-04-27T19:57:23.254Z,11.70
2023-04-27T19:59:55.045Z,11.70
2023-04-27T20:02:22.104Z,11.70
2023-04-27T20:04:49.331Z,11.70
2023-04-27T20:07:16.637Z,11.70
2023-04-27T20:09:44.046Z,11.70
2023-04-27T20:12:23.654Z,11.70
2023-04-27T20:15:00.821Z,11.70
2023-04-27T20:17:27.902Z,11.60
2023-04-27T20:19:58.032Z,11.50
2023-04-27T20:22:25.041Z,11.40
2023-04-27T20:24:59.345Z,11.40
2023-04-27T20:27:26.600Z,11.40
2023-04-27T20:29:55.876Z,11.30
2023-04-27T20:32:25.616Z,11.30
2023-04-27T20:34:55.124Z,11.30
2023-04-27T20:37:26.192Z,11.40
2023-04-27T20:39:54.038Z,11.30
2023-04-27T20:42:25.543Z,11.30
2023-04-27T20:44:54.875Z,11.30
2023-04-27T20:47:22.344Z,11.40
2023-04-27T20:49:49.250Z,11.40
2023-04-27T20:52:18.545Z,11.50
2023-04-27T20:54:47.569Z,11.50
2023-04-27T20:57:17.148Z,11.50
2023-04-27T20:59:44.341Z,11.50
2023-04-27T21:02:11.362Z,11.40
2023-04-27T21:04:41.282Z,11.40
2023-04-27T21:07:08.506Z,11.40
2023-04-27T21:09:36.250Z,11.30
2023-04-27T21:12:05.726Z,11.30
2023-04-27T21:14:33.816Z,11.30
2023-04-27T21:17:00.895Z,11.30
2023-04-27T21:19:27.913Z,11.30
2023-04-27T21:21:57.386Z,11.30
2023-04-27T21:24:24.655Z,11.20
2023-04-27T21:26:55.962Z,11.20
2023-04-27T21:29:22.924Z,11.20
2023-04-27T21:31:52.705Z,11.10
2023-04-27T21:34:22.070Z,11.10
2023-04-27T21:36:49.049Z,11.00
2023-04-27T21:39:18.496Z,11.00
2023-04-27T21:41:48.916Z,11.00
2023-04-27T21:44:16.155Z,11.00
2023-04-27T21:46:43.746Z,10.90
2023-04-27T21:49:10.953Z,10.80
2023-04-27T21:51:40.527Z,10.80
2023-04-27T21:54:10.024Z,10.70
2023-04-27T21:57:02.293Z,10.60
2023-04-27T21:59:29.347Z,10.50
2023-04-27T22:02:06.497Z,10.50
2023-04-27T22:04:38.524Z,10.40
2023-04-27T22:07:08.266Z,10.40
2023-04-27T22:09:37.621Z,10.40
2023-04-27T22:12:07.353Z,10.40
2023-04-27T22:14:42.846Z,10.50
2023-04-27T22:17:12.573Z,10.40
2023-04-27T22:19:44.201Z,10.50
2023-04-27T22:22:13.286Z,10.40
2023-04-27T22:24:40.276Z,10.40
2023-04-27T22:27:07.210Z,10.30
2023-04-27T22:29:34.176Z,10.20
2023-04-27T22:32:01.324Z,10.10
2023-04-27T22:34:31.264Z,10.10
2023-04-27T22:36:58.734Z,10.00
2023-04-27T22:39:25.908Z,10.00
2023-04-27T22:41:52.868Z,9.90
2023-04-27T22:44:19.830Z,9.90
2023-04-27T22:46:46.765Z,9.70
2023-04-27T22:49:15.013Z,9.70
2023-04-27T22:51:44.354Z,9.70
2023-04-27T22:54:11.322Z,9.70
2023-04-27T22:56:41.140Z,9.80
2023-04-27T22:59:08.161Z,9.90
2023-04-27T23:01:35.254Z,10.00
2023-04-27T23:04:02.637Z,10.00
2023-04-27T23:06:30.379Z,10.20
2023-04-27T23:09:00.259Z,10.30
2023-04-27T23:11:32.028Z,10.40
2023-04-27T23:13:59.087Z,10.50
2023-04-27T23:16:26.115Z,10.50
2023-04-27T23:18:53.142Z,10.50
2023-04-27T23:21:20.190Z,10.60
2023-04-27T23:23:48.860Z,10.70
2023-04-27T23:26:16.399Z,10.70
2023-04-27T23:28:43.655Z,10.70
2023-04-27T23:31:10.908Z,10.70
2023-04-27T23:33:40.259Z,10.70
2023-04-27T23:36:07.404Z,10.60
2023-04-27T23:38:34.450Z,10.60
2023-04-27T23:41:02.465Z,10.60
2023-04-27T23:43:29.416Z,10.60
2023-04-27T23:46:00.963Z,10.60
2023-04-27T23:48:27.973Z,10.70
2023-04-27T23:51:02.164Z,10.80
2023-04-27T23:53:29.546Z,10.90
2023-04-27T23:55:56.858Z,10.90
2023-04-27T23:58:24.882Z,10.90
